sensor_id;sensor_type;location;lat;lon;timestamp;temperature;humidity
74458;SHT31;62896;51.032;3.712;2023-02-01T00:03:18;6.8;87
74458;SHT31;62896;51.032;3.712;2023-02-01T00:06:38;6.8;87
74458;SHT31;62896;51.032;3.712;2023-02-01T00:09:58;6.8;87
74458;SHT31;62896;51.032;3.712;2023-02-01T00:13:18;6.7;87
74458;SHT31;62896;51.032;3.712;2023-02-01T00:16:38;6.7;87
74458;SHT31;62896;51.032;3.712;2023-02-01T00:19:58;6.7;87
74458;SHT31;62896;51.032;3.712;2023-02-01T00:23:18;6.5;87
74458;SHT31;62896;51.032;3.712;2023-02-01T00:26:39;6.5;87
74458;SHT31;62896;51.032;3.712;2023-02-01T00:29:58;6.5;87
74458;SHT31;62896;51.032;3.712;2023-02-01T00:33:18;6.5;86
74458;SHT31;62896;51.032;3.712;2023-02-01T00:36:38;6.5;86
74458;SHT31;62896;51.032;3.712;2023-02-01T00:39:58;6.5;86
74458;SHT31;62896;51.032;3.712;2023-02-01T00:43:18;6.4;85
74458;SHT31;62896;51.032;3.712;2023-02-01T00:46:38;6.4;85
74458;SHT31;62896;51.032;3.712;2023-02-01T00:49:58;6.4;85
74458;SHT31;62896;51.032;3.712;2023-02-01T00:53:18;6.3;84
74458;SHT31;62896;51.032;3.712;2023-02-01T00:56:38;6.3;84
74458;SHT31;62896;51.032;3.712;2023-02-01T00:59:58;6.3;84
74458;SHT31;62896;51.032;3.712;2023-02-01T01:03:18;6.1;84
74458;SHT31;62896;51.032;3.712;2023-02-01T01:06:38;6.1;84
74458;SHT31;62896;51.032;3.712;2023-02-01T01:09:58;6.1;84
74458;SHT31;62896;51.032;3.712;2023-02-01T01:13:18;6.1;83
74458;SHT31;62896;51.032;3.712;2023-02-01T01:16:38;6.1;83
74458;SHT31;62896;51.032;3.712;2023-02-01T01:19:58;6.1;83
74458;SHT31;62896;51.032;3.712;2023-02-01T01:23:18;5.9;83
74458;SHT31;62896;51.032;3.712;2023-02-01T01:26:38;5.9;83
74458;SHT31;62896;51.032;3.712;2023-02-01T01:29:58;5.9;83
74458;SHT31;62896;51.032;3.712;2023-02-01T01:33:18;5.8;84
74458;SHT31;62896;51.032;3.712;2023-02-01T01:36:38;5.8;84
74458;SHT31;62896;51.032;3.712;2023-02-01T01:39:58;5.8;84
74458;SHT31;62896;51.032;3.712;2023-02-01T01:43:19;5.7;85
74458;SHT31;62896;51.032;3.712;2023-02-01T01:46:38;5.7;85
74458;SHT31;62896;51.032;3.712;2023-02-01T01:49:58;5.7;85
74458;SHT31;62896;51.032;3.712;2023-02-01T01:53:19;5.7;85
74458;SHT31;62896;51.032;3.712;2023-02-01T01:56:38;5.7;85
74458;SHT31;62896;51.032;3.712;2023-02-01T01:59:59;5.7;85
74458;SHT31;62896;51.032;3.712;2023-02-01T02:03:19;5.7;85
74458;SHT31;62896;51.032;3.712;2023-02-01T02:06:41;5.7;85
74458;SHT31;62896;51.032;3.712;2023-02-01T02:09:58;5.7;85
74458;SHT31;62896;51.032;3.712;2023-02-01T02:13:18;5.7;85
74458;SHT31;62896;51.032;3.712;2023-02-01T02:16:40;5.7;85
74458;SHT31;62896;51.032;3.712;2023-02-01T02:20:08;5.7;85
74458;SHT31;62896;51.032;3.712;2023-02-01T02:24:28;5.6;86
74458;SHT31;62896;51.032;3.712;2023-02-01T02:26:39;5.6;86
74458;SHT31;62896;51.032;3.712;2023-02-01T02:33:22;5.5;86
74458;SHT31;62896;51.032;3.712;2023-02-01T02:36:40;5.5;86
74458;SHT31;62896;51.032;3.712;2023-02-01T02:39:59;5.5;86
74458;SHT31;62896;51.032;3.712;2023-02-01T02:43:20;5.6;86
74458;SHT31;62896;51.032;3.712;2023-02-01T02:46:38;5.6;86
74458;SHT31;62896;51.032;3.712;2023-02-01T02:50:01;5.6;86
74458;SHT31;62896;51.032;3.712;2023-02-01T02:53:19;5.6;86
74458;SHT31;62896;51.032;3.712;2023-02-01T02:56:38;5.6;86
74458;SHT31;62896;51.032;3.712;2023-02-01T02:59:59;5.6;86
74458;SHT31;62896;51.032;3.712;2023-02-01T03:03:18;5.6;86
74458;SHT31;62896;51.032;3.712;2023-02-01T03:06:38;5.6;86
74458;SHT31;62896;51.032;3.712;2023-02-01T03:09:58;5.6;86
74458;SHT31;62896;51.032;3.712;2023-02-01T03:13:20;5.7;85
74458;SHT31;62896;51.032;3.712;2023-02-01T03:16:40;5.7;85
74458;SHT31;62896;51.032;3.712;2023-02-01T03:19:58;5.7;85
74458;SHT31;62896;51.032;3.712;2023-02-01T03:23:19;5.7;85
74458;SHT31;62896;51.032;3.712;2023-02-01T03:26:40;5.7;85
74458;SHT31;62896;51.032;3.712;2023-02-01T03:29:59;5.7;85
74458;SHT31;62896;51.032;3.712;2023-02-01T03:33:19;5.7;85
74458;SHT31;62896;51.032;3.712;2023-02-01T03:36:39;5.7;85
74458;SHT31;62896;51.032;3.712;2023-02-01T03:39:59;5.7;85
74458;SHT31;62896;51.032;3.712;2023-02-01T03:43:18;5.7;85
74458;SHT31;62896;51.032;3.712;2023-02-01T03:46:39;5.7;85
74458;SHT31;62896;51.032;3.712;2023-02-01T03:49:59;5.7;85
74458;SHT31;62896;51.032;3.712;2023-02-01T03:53:19;5.7;85
74458;SHT31;62896;51.032;3.712;2023-02-01T03:56:39;5.7;85
74458;SHT31;62896;51.032;3.712;2023-02-01T04:00:03;5.7;85
74458;SHT31;62896;51.032;3.712;2023-02-01T04:03:18;5.6;85
74458;SHT31;62896;51.032;3.712;2023-02-01T04:06:38;5.6;85
74458;SHT31;62896;51.032;3.712;2023-02-01T04:09:58;5.6;85
74458;SHT31;62896;51.032;3.712;2023-02-01T04:13:18;5.5;85
74458;SHT31;62896;51.032;3.712;2023-02-01T04:16:38;5.5;85
74458;SHT31;62896;51.032;3.712;2023-02-01T04:19:58;5.5;85
74458;SHT31;62896;51.032;3.712;2023-02-01T04:23:18;5.5;85
74458;SHT31;62896;51.032;3.712;2023-02-01T04:26:38;5.5;85
74458;SHT31;62896;51.032;3.712;2023-02-01T04:29:58;5.5;85
74458;SHT31;62896;51.032;3.712;2023-02-01T04:33:18;5.5;85
74458;SHT31;62896;51.032;3.712;2023-02-01T04:36:38;5.5;85
74458;SHT31;62896;51.032;3.712;2023-02-01T04:39:58;5.5;85
74458;SHT31;62896;51.032;3.712;2023-02-01T04:43:18;5.4;86
74458;SHT31;62896;51.032;3.712;2023-02-01T04:46:38;5.4;86
74458;SHT31;62896;51.032;3.712;2023-02-01T04:49:58;5.4;86
74458;SHT31;62896;51.032;3.712;2023-02-01T04:53:18;5.3;86
74458;SHT31;62896;51.032;3.712;2023-02-01T04:56:38;5.3;86
74458;SHT31;62896;51.032;3.712;2023-02-01T04:59:58;5.3;86
74458;SHT31;62896;51.032;3.712;2023-02-01T05:03:18;5.3;86
74458;SHT31;62896;51.032;3.712;2023-02-01T05:06:38;5.3;86
74458;SHT31;62896;51.032;3.712;2023-02-01T05:09:58;5.3;86
74458;SHT31;62896;51.032;3.712;2023-02-01T05:13:18;5.3;86
74458;SHT31;62896;51.032;3.712;2023-02-01T05:16:38;5.3;86
74458;SHT31;62896;51.032;3.712;2023-02-01T05:19:58;5.3;86
74458;SHT31;62896;51.032;3.712;2023-02-01T05:23:18;5.3;86
74458;SHT31;62896;51.032;3.712;2023-02-01T05:26:38;5.3;86
74458;SHT31;62896;51.032;3.712;2023-02-01T05:29:58;5.3;86
74458;SHT31;62896;51.032;3.712;2023-02-01T05:33:18;5.2;86
74458;SHT31;62896;51.032;3.712;2023-02-01T05:36:38;5.2;86
74458;SHT31;62896;51.032;3.712;2023-02-01T05:39:58;5.2;86
74458;SHT31;62896;51.032;3.712;2023-02-01T05:43:18;5.2;86
74458;SHT31;62896;51.032;3.712;2023-02-01T05:46:38;5.2;86
74458;SHT31;62896;51.032;3.712;2023-02-01T05:49:58;5.2;86
74458;SHT31;62896;51.032;3.712;2023-02-01T05:53:18;5.1;87
74458;SHT31;62896;51.032;3.712;2023-02-01T05:56:38;5.1;87
74458;SHT31;62896;51.032;3.712;2023-02-01T05:59:58;5.1;87
74458;SHT31;62896;51.032;3.712;2023-02-01T06:03:18;5;87
74458;SHT31;62896;51.032;3.712;2023-02-01T06:06:38;5;87
74458;SHT31;62896;51.032;3.712;2023-02-01T06:09:58;5;87
74458;SHT31;62896;51.032;3.712;2023-02-01T06:13:18;4.9;87
74458;SHT31;62896;51.032;3.712;2023-02-01T06:16:38;4.9;87
74458;SHT31;62896;51.032;3.712;2023-02-01T06:19:58;4.9;87
74458;SHT31;62896;51.032;3.712;2023-02-01T06:23:18;4.9;88
74458;SHT31;62896;51.032;3.712;2023-02-01T06:26:38;4.9;88
74458;SHT31;62896;51.032;3.712;2023-02-01T06:29:58;4.9;88
74458;SHT31;62896;51.032;3.712;2023-02-01T06:33:18;4.9;88
74458;SHT31;62896;51.032;3.712;2023-02-01T06:36:38;4.9;88
74458;SHT31;62896;51.032;3.712;2023-02-01T06:39:58;4.9;88
74458;SHT31;62896;51.032;3.712;2023-02-01T06:43:18;4.8;88
74458;SHT31;62896;51.032;3.712;2023-02-01T06:46:38;4.8;88
74458;SHT31;62896;51.032;3.712;2023-02-01T06:49:58;4.8;88
74458;SHT31;62896;51.032;3.712;2023-02-01T06:53:18;4.8;88
74458;SHT31;62896;51.032;3.712;2023-02-01T06:56:38;4.8;88
74458;SHT31;62896;51.032;3.712;2023-02-01T06:59:58;4.8;88
74458;SHT31;62896;51.032;3.712;2023-02-01T07:03:18;4.9;88
74458;SHT31;62896;51.032;3.712;2023-02-01T07:06:38;4.9;88
74458;SHT31;62896;51.032;3.712;2023-02-01T07:09:58;4.9;88
74458;SHT31;62896;51.032;3.712;2023-02-01T07:13:18;5;87
74458;SHT31;62896;51.032;3.712;2023-02-01T07:16:38;5;87
74458;SHT31;62896;51.032;3.712;2023-02-01T07:19:58;5;87
74458;SHT31;62896;51.032;3.712;2023-02-01T07:23:18;5;87
74458;SHT31;62896;51.032;3.712;2023-02-01T07:26:38;5;87
74458;SHT31;62896;51.032;3.712;2023-02-01T07:29:58;5;87
74458;SHT31;62896;51.032;3.712;2023-02-01T07:33:19;5;87
74458;SHT31;62896;51.032;3.712;2023-02-01T07:36:38;5;87
74458;SHT31;62896;51.032;3.712;2023-02-01T07:39:58;5;87
74458;SHT31;62896;51.032;3.712;2023-02-01T07:43:18;5.1;87
74458;SHT31;62896;51.032;3.712;2023-02-01T07:46:38;5.1;87
74458;SHT31;62896;51.032;3.712;2023-02-01T07:49:58;5.1;87
74458;SHT31;62896;51.032;3.712;2023-02-01T07:53:18;5.2;87
74458;SHT31;62896;51.032;3.712;2023-02-01T07:56:38;5.2;87
74458;SHT31;62896;51.032;3.712;2023-02-01T07:59:59;5.2;87
74458;SHT31;62896;51.032;3.712;2023-02-01T08:03:18;5.4;86
74458;SHT31;62896;51.032;3.712;2023-02-01T08:06:38;5.4;86
74458;SHT31;62896;51.032;3.712;2023-02-01T08:09:58;5.4;86
74458;SHT31;62896;51.032;3.712;2023-02-01T08:13:18;5.5;86
74458;SHT31;62896;51.032;3.712;2023-02-01T08:16:38;5.5;86
74458;SHT31;62896;51.032;3.712;2023-02-01T08:19:58;5.5;86
74458;SHT31;62896;51.032;3.712;2023-02-01T08:23:18;5.7;86
74458;SHT31;62896;51.032;3.712;2023-02-01T08:26:38;5.7;86
74458;SHT31;62896;51.032;3.712;2023-02-01T08:29:58;5.7;86
74458;SHT31;62896;51.032;3.712;2023-02-01T08:33:18;5.8;85
74458;SHT31;62896;51.032;3.712;2023-02-01T08:36:38;5.8;85
74458;SHT31;62896;51.032;3.712;2023-02-01T08:39:58;5.8;85
74458;SHT31;62896;51.032;3.712;2023-02-01T08:43:18;5.9;85
74458;SHT31;62896;51.032;3.712;2023-02-01T08:46:38;5.9;85
74458;SHT31;62896;51.032;3.712;2023-02-01T08:49:58;5.9;85
74458;SHT31;62896;51.032;3.712;2023-02-01T08:53:18;6.1;84
74458;SHT31;62896;51.032;3.712;2023-02-01T08:56:38;6.1;84
74458;SHT31;62896;51.032;3.712;2023-02-01T08:59:58;6.1;84
74458;SHT31;62896;51.032;3.712;2023-02-01T09:03:18;6.5;83
74458;SHT31;62896;51.032;3.712;2023-02-01T09:06:39;6.5;83
74458;SHT31;62896;51.032;3.712;2023-02-01T09:09:58;6.5;83
74458;SHT31;62896;51.032;3.712;2023-02-01T09:13:18;6.9;82
74458;SHT31;62896;51.032;3.712;2023-02-01T09:16:38;6.9;82
74458;SHT31;62896;51.032;3.712;2023-02-01T09:19:58;6.9;82
74458;SHT31;62896;51.032;3.712;2023-02-01T09:23:18;7.3;81
74458;SHT31;62896;51.032;3.712;2023-02-01T09:26:38;7.3;81
74458;SHT31;62896;51.032;3.712;2023-02-01T09:29:58;7.3;81
74458;SHT31;62896;51.032;3.712;2023-02-01T09:33:18;7.5;80
74458;SHT31;62896;51.032;3.712;2023-02-01T09:36:38;7.5;80
74458;SHT31;62896;51.032;3.712;2023-02-01T09:39:58;7.5;80
74458;SHT31;62896;51.032;3.712;2023-02-01T09:43:21;7.6;79
74458;SHT31;62896;51.032;3.712;2023-02-01T09:46:38;7.6;79
74458;SHT31;62896;51.032;3.712;2023-02-01T09:49:59;7.6;79
74458;SHT31;62896;51.032;3.712;2023-02-01T09:53:21;7.8;78
74458;SHT31;62896;51.032;3.712;2023-02-01T09:56:39;7.8;78
74458;SHT31;62896;51.032;3.712;2023-02-01T10:00:00;7.8;78
74458;SHT31;62896;51.032;3.712;2023-02-01T10:03:18;8.2;77
74458;SHT31;62896;51.032;3.712;2023-02-01T10:06:42;8.2;77
74458;SHT31;62896;51.032;3.712;2023-02-01T10:09:59;8.2;77
74458;SHT31;62896;51.032;3.712;2023-02-01T10:13:27;8.2;76
74458;SHT31;62896;51.032;3.712;2023-02-01T10:16:40;8.2;76
74458;SHT31;62896;51.032;3.712;2023-02-01T10:20:02;8.2;76
74458;SHT31;62896;51.032;3.712;2023-02-01T10:23:24;8.2;76
74458;SHT31;62896;51.032;3.712;2023-02-01T10:26:39;8.2;76
74458;SHT31;62896;51.032;3.712;2023-02-01T10:29:59;8.2;76
74458;SHT31;62896;51.032;3.712;2023-02-01T10:33:20;8.4;75
74458;SHT31;62896;51.032;3.712;2023-02-01T10:36:39;8.4;75
74458;SHT31;62896;51.032;3.712;2023-02-01T10:39:59;8.4;75
74458;SHT31;62896;51.032;3.712;2023-02-01T10:43:18;8.6;75
74458;SHT31;62896;51.032;3.712;2023-02-01T10:46:38;8.6;75
74458;SHT31;62896;51.032;3.712;2023-02-01T10:50:02;8.6;75
74458;SHT31;62896;51.032;3.712;2023-02-01T10:53:20;8.6;74
74458;SHT31;62896;51.032;3.712;2023-02-01T10:56:38;8.6;74
74458;SHT31;62896;51.032;3.712;2023-02-01T10:59:58;8.6;74
74458;SHT31;62896;51.032;3.712;2023-02-01T11:03:19;8.8;73
74458;SHT31;62896;51.032;3.712;2023-02-01T11:06:39;8.8;73
74458;SHT31;62896;51.032;3.712;2023-02-01T11:09:58;8.8;73
74458;SHT31;62896;51.032;3.712;2023-02-01T11:13:18;9.5;69
74458;SHT31;62896;51.032;3.712;2023-02-01T11:16:38;9.5;69
74458;SHT31;62896;51.032;3.712;2023-02-01T11:19:59;9.5;69
74458;SHT31;62896;51.032;3.712;2023-02-01T11:23:19;9.8;68
74458;SHT31;62896;51.032;3.712;2023-02-01T11:26:38;9.8;68
74458;SHT31;62896;51.032;3.712;2023-02-01T11:29:59;9.8;68
74458;SHT31;62896;51.032;3.712;2023-02-01T11:33:19;9.8;67
74458;SHT31;62896;51.032;3.712;2023-02-01T11:36:38;9.8;67
74458;SHT31;62896;51.032;3.712;2023-02-01T11:39:59;9.8;67
74458;SHT31;62896;51.032;3.712;2023-02-01T11:43:23;10;66
74458;SHT31;62896;51.032;3.712;2023-02-01T11:46:38;10;66
74458;SHT31;62896;51.032;3.712;2023-02-01T11:49:59;10;66
74458;SHT31;62896;51.032;3.712;2023-02-01T11:53:20;11;63
74458;SHT31;62896;51.032;3.712;2023-02-01T11:56:40;11;63
74458;SHT31;62896;51.032;3.712;2023-02-01T12:00:02;11;63
74458;SHT31;62896;51.032;3.712;2023-02-01T12:03:26;12.8;56
74458;SHT31;62896;51.032;3.712;2023-02-01T12:06:42;12.8;56
74458;SHT31;62896;51.032;3.712;2023-02-01T12:10:01;12.8;56
74458;SHT31;62896;51.032;3.712;2023-02-01T12:13:21;12.4;57
74458;SHT31;62896;51.032;3.712;2023-02-01T12:16:40;12.4;57
74458;SHT31;62896;51.032;3.712;2023-02-01T12:20:02;12.4;57
74458;SHT31;62896;51.032;3.712;2023-02-01T12:23:21;13.5;53
74458;SHT31;62896;51.032;3.712;2023-02-01T12:26:41;13.5;53
74458;SHT31;62896;51.032;3.712;2023-02-01T12:30:03;13.5;53
74458;SHT31;62896;51.032;3.712;2023-02-01T12:33:21;13.6;52
74458;SHT31;62896;51.032;3.712;2023-02-01T12:36:40;13.6;52
74458;SHT31;62896;51.032;3.712;2023-02-01T12:40:01;13.6;52
74458;SHT31;62896;51.032;3.712;2023-02-01T12:43:19;11.6;57
74458;SHT31;62896;51.032;3.712;2023-02-01T12:46:40;11.6;57
74458;SHT31;62896;51.032;3.712;2023-02-01T12:50:00;11.6;57
74458;SHT31;62896;51.032;3.712;2023-02-01T12:53:19;12;57
74458;SHT31;62896;51.032;3.712;2023-02-01T12:56:40;12;57
74458;SHT31;62896;51.032;3.712;2023-02-01T13:00:01;12;57
74458;SHT31;62896;51.032;3.712;2023-02-01T13:03:22;13.5;53
74458;SHT31;62896;51.032;3.712;2023-02-01T13:06:39;13.5;53
74458;SHT31;62896;51.032;3.712;2023-02-01T13:09:59;13.5;53
74458;SHT31;62896;51.032;3.712;2023-02-01T13:13:19;14.2;51
74458;SHT31;62896;51.032;3.712;2023-02-01T13:16:40;14.2;51
74458;SHT31;62896;51.032;3.712;2023-02-01T13:19:59;14.2;51
74458;SHT31;62896;51.032;3.712;2023-02-01T13:23:22;14.8;49
74458;SHT31;62896;51.032;3.712;2023-02-01T13:26:38;14.8;49
74458;SHT31;62896;51.032;3.712;2023-02-01T13:29:59;14.8;49
74458;SHT31;62896;51.032;3.712;2023-02-01T13:33:24;15.1;48
74458;SHT31;62896;51.032;3.712;2023-02-01T13:36:48;15.1;48
74458;SHT31;62896;51.032;3.712;2023-02-01T13:39:59;15.1;48
74458;SHT31;62896;51.032;3.712;2023-02-01T13:43:19;15.1;48
74458;SHT31;62896;51.032;3.712;2023-02-01T13:46:40;15.1;48
74458;SHT31;62896;51.032;3.712;2023-02-01T13:50:00;15.1;48
74458;SHT31;62896;51.032;3.712;2023-02-01T13:53:21;14.5;49
74458;SHT31;62896;51.032;3.712;2023-02-01T13:56:39;14.5;49
74458;SHT31;62896;51.032;3.712;2023-02-01T14:00:05;14.5;49
74458;SHT31;62896;51.032;3.712;2023-02-01T14:03:19;12.5;56
74458;SHT31;62896;51.032;3.712;2023-02-01T14:06:41;12.5;56
74458;SHT31;62896;51.032;3.712;2023-02-01T14:09:58;12.5;56
74458;SHT31;62896;51.032;3.712;2023-02-01T14:13:23;11.5;60
74458;SHT31;62896;51.032;3.712;2023-02-01T14:16:38;11.5;60
74458;SHT31;62896;51.032;3.712;2023-02-01T14:20:36;11.5;60
74458;SHT31;62896;51.032;3.712;2023-02-01T14:23:20;10.8;63
74458;SHT31;62896;51.032;3.712;2023-02-01T14:26:43;10.8;63
74458;SHT31;62896;51.032;3.712;2023-02-01T14:29:59;10.8;63
74458;SHT31;62896;51.032;3.712;2023-02-01T14:33:20;10.3;64
74458;SHT31;62896;51.032;3.712;2023-02-01T14:36:40;10.3;64
74458;SHT31;62896;51.032;3.712;2023-02-01T14:39:59;10.3;64
74458;SHT31;62896;51.032;3.712;2023-02-01T14:43:46;10;66
74458;SHT31;62896;51.032;3.712;2023-02-01T14:47:26;10;66
74458;SHT31;62896;51.032;3.712;2023-02-01T14:50:31;10;66
74458;SHT31;62896;51.032;3.712;2023-02-01T14:53:20;9.9;66
74458;SHT31;62896;51.032;3.712;2023-02-01T14:56:38;9.9;66
74458;SHT31;62896;51.032;3.712;2023-02-01T14:59:59;9.9;66
74458;SHT31;62896;51.032;3.712;2023-02-01T15:03:32;9.7;68
74458;SHT31;62896;51.032;3.712;2023-02-01T15:06:39;9.7;68
74458;SHT31;62896;51.032;3.712;2023-02-01T15:09:58;9.7;68
74458;SHT31;62896;51.032;3.712;2023-02-01T15:13:19;9.7;68
74458;SHT31;62896;51.032;3.712;2023-02-01T15:16:41;9.7;68
74458;SHT31;62896;51.032;3.712;2023-02-01T15:19:59;9.7;68
74458;SHT31;62896;51.032;3.712;2023-02-01T15:23:18;9.6;69
74458;SHT31;62896;51.032;3.712;2023-02-01T15:26:38;9.6;69
74458;SHT31;62896;51.032;3.712;2023-02-01T15:30:04;9.6;69
74458;SHT31;62896;51.032;3.712;2023-02-01T15:33:19;9.4;70
74458;SHT31;62896;51.032;3.712;2023-02-01T15:36:39;9.4;70
74458;SHT31;62896;51.032;3.712;2023-02-01T15:40:02;9.4;70
74458;SHT31;62896;51.032;3.712;2023-02-01T15:43:18;9.4;71
74458;SHT31;62896;51.032;3.712;2023-02-01T15:46:39;9.4;71
74458;SHT31;62896;51.032;3.712;2023-02-01T15:49:59;9.4;71
74458;SHT31;62896;51.032;3.712;2023-02-01T15:53:19;9.2;71
74458;SHT31;62896;51.032;3.712;2023-02-01T15:56:39;9.2;71
74458;SHT31;62896;51.032;3.712;2023-02-01T15:59:59;9.2;71
74458;SHT31;62896;51.032;3.712;2023-02-01T16:03:28;9.1;72
74458;SHT31;62896;51.032;3.712;2023-02-01T16:06:44;9.1;72
74458;SHT31;62896;51.032;3.712;2023-02-01T16:09:59;9.1;72
74458;SHT31;62896;51.032;3.712;2023-02-01T16:13:19;9.1;73
74458;SHT31;62896;51.032;3.712;2023-02-01T16:16:39;9.1;73
74458;SHT31;62896;51.032;3.712;2023-02-01T16:19:58;9.1;73
74458;SHT31;62896;51.032;3.712;2023-02-01T16:23:19;9;74
74458;SHT31;62896;51.032;3.712;2023-02-01T16:26:38;9;74
74458;SHT31;62896;51.032;3.712;2023-02-01T16:29:59;9;74
74458;SHT31;62896;51.032;3.712;2023-02-01T16:33:19;8.9;75
74458;SHT31;62896;51.032;3.712;2023-02-01T16:36:39;8.9;75
74458;SHT31;62896;51.032;3.712;2023-02-01T16:39:59;8.9;75
74458;SHT31;62896;51.032;3.712;2023-02-01T16:43:19;8.8;76
74458;SHT31;62896;51.032;3.712;2023-02-01T16:46:39;8.8;76
74458;SHT31;62896;51.032;3.712;2023-02-01T16:49:59;8.8;76
74458;SHT31;62896;51.032;3.712;2023-02-01T16:53:19;8.7;77
74458;SHT31;62896;51.032;3.712;2023-02-01T16:56:41;8.7;77
74458;SHT31;62896;51.032;3.712;2023-02-01T16:59:59;8.7;77
74458;SHT31;62896;51.032;3.712;2023-02-01T17:03:19;8.7;78
74458;SHT31;62896;51.032;3.712;2023-02-01T17:06:39;8.7;78
74458;SHT31;62896;51.032;3.712;2023-02-01T17:09:59;8.7;78
74458;SHT31;62896;51.032;3.712;2023-02-01T17:13:19;8.7;78
74458;SHT31;62896;51.032;3.712;2023-02-01T17:16:39;8.7;78
74458;SHT31;62896;51.032;3.712;2023-02-01T17:19:59;8.7;78
74458;SHT31;62896;51.032;3.712;2023-02-01T17:23:19;8.7;78
74458;SHT31;62896;51.032;3.712;2023-02-01T17:26:39;8.7;78
74458;SHT31;62896;51.032;3.712;2023-02-01T17:29:59;8.7;78
74458;SHT31;62896;51.032;3.712;2023-02-01T17:33:20;8.7;78
74458;SHT31;62896;51.032;3.712;2023-02-01T17:36:39;8.7;78
74458;SHT31;62896;51.032;3.712;2023-02-01T17:39:59;8.7;78
74458;SHT31;62896;51.032;3.712;2023-02-01T17:43:20;8.7;78
74458;SHT31;62896;51.032;3.712;2023-02-01T17:46:39;8.7;78
74458;SHT31;62896;51.032;3.712;2023-02-01T17:49:59;8.7;78
74458;SHT31;62896;51.032;3.712;2023-02-01T17:53:19;8.7;78
74458;SHT31;62896;51.032;3.712;2023-02-01T17:56:39;8.7;78
74458;SHT31;62896;51.032;3.712;2023-02-01T17:59:59;8.7;78
74458;SHT31;62896;51.032;3.712;2023-02-01T18:03:20;8.7;79
74458;SHT31;62896;51.032;3.712;2023-02-01T18:06:39;8.7;79
74458;SHT31;62896;51.032;3.712;2023-02-01T18:09:59;8.7;79
74458;SHT31;62896;51.032;3.712;2023-02-01T18:13:19;8.7;79
74458;SHT31;62896;51.032;3.712;2023-02-01T18:16:39;8.7;79
74458;SHT31;62896;51.032;3.712;2023-02-01T18:19:59;8.7;79
74458;SHT31;62896;51.032;3.712;2023-02-01T18:23:19;8.7;79
74458;SHT31;62896;51.032;3.712;2023-02-01T18:26:39;8.7;79
74458;SHT31;62896;51.032;3.712;2023-02-01T18:29:59;8.7;79
74458;SHT31;62896;51.032;3.712;2023-02-01T18:33:19;8.6;79
74458;SHT31;62896;51.032;3.712;2023-02-01T18:36:39;8.6;79
74458;SHT31;62896;51.032;3.712;2023-02-01T18:39:59;8.6;79
74458;SHT31;62896;51.032;3.712;2023-02-01T18:43:19;8.6;79
74458;SHT31;62896;51.032;3.712;2023-02-01T18:46:39;8.6;79
74458;SHT31;62896;51.032;3.712;2023-02-01T18:49:59;8.6;79
74458;SHT31;62896;51.032;3.712;2023-02-01T18:53:19;8.6;79
74458;SHT31;62896;51.032;3.712;2023-02-01T18:56:39;8.6;79
74458;SHT31;62896;51.032;3.712;2023-02-01T18:59:59;8.6;79
74458;SHT31;62896;51.032;3.712;2023-02-01T19:03:19;8.6;79
74458;SHT31;62896;51.032;3.712;2023-02-01T19:06:39;8.6;79
74458;SHT31;62896;51.032;3.712;2023-02-01T19:09:59;8.6;79
74458;SHT31;62896;51.032;3.712;2023-02-01T19:13:19;8.6;80
74458;SHT31;62896;51.032;3.712;2023-02-01T19:16:39;8.6;80
74458;SHT31;62896;51.032;3.712;2023-02-01T19:19:59;8.6;80
74458;SHT31;62896;51.032;3.712;2023-02-01T19:23:19;8.6;80
74458;SHT31;62896;51.032;3.712;2023-02-01T19:26:39;8.6;80
74458;SHT31;62896;51.032;3.712;2023-02-01T19:29:59;8.6;80
74458;SHT31;62896;51.032;3.712;2023-02-01T19:33:19;8.6;80
74458;SHT31;62896;51.032;3.712;2023-02-01T19:36:39;8.6;80
74458;SHT31;62896;51.032;3.712;2023-02-01T19:39:59;8.6;80
74458;SHT31;62896;51.032;3.712;2023-02-01T19:43:19;8.6;80
74458;SHT31;62896;51.032;3.712;2023-02-01T19:46:39;8.6;80
74458;SHT31;62896;51.032;3.712;2023-02-01T19:49:59;8.6;80
74458;SHT31;62896;51.032;3.712;2023-02-01T19:53:19;8.6;80
74458;SHT31;62896;51.032;3.712;2023-02-01T19:56:39;8.6;80
74458;SHT31;62896;51.032;3.712;2023-02-01T19:59:59;8.6;80
74458;SHT31;62896;51.032;3.712;2023-02-01T20:03:19;8.6;80
74458;SHT31;62896;51.032;3.712;2023-02-01T20:06:39;8.6;80
74458;SHT31;62896;51.032;3.712;2023-02-01T20:09:59;8.6;80
74458;SHT31;62896;51.032;3.712;2023-02-01T20:13:19;8.5;80
74458;SHT31;62896;51.032;3.712;2023-02-01T20:16:39;8.5;80
74458;SHT31;62896;51.032;3.712;2023-02-01T20:19:59;8.5;80
74458;SHT31;62896;51.032;3.712;2023-02-01T20:23:19;8.5;81
74458;SHT31;62896;51.032;3.712;2023-02-01T20:26:39;8.5;81
74458;SHT31;62896;51.032;3.712;2023-02-01T20:29:59;8.5;81
74458;SHT31;62896;51.032;3.712;2023-02-01T20:33:19;8.4;81
74458;SHT31;62896;51.032;3.712;2023-02-01T20:36:39;8.4;81
74458;SHT31;62896;51.032;3.712;2023-02-01T20:39:59;8.4;81
74458;SHT31;62896;51.032;3.712;2023-02-01T20:43:19;8.4;81
74458;SHT31;62896;51.032;3.712;2023-02-01T20:46:39;8.4;81
74458;SHT31;62896;51.032;3.712;2023-02-01T20:49:59;8.4;81
74458;SHT31;62896;51.032;3.712;2023-02-01T20:53:19;8.3;82
74458;SHT31;62896;51.032;3.712;2023-02-01T20:56:39;8.3;82
74458;SHT31;62896;51.032;3.712;2023-02-01T20:59:59;8.3;82
74458;SHT31;62896;51.032;3.712;2023-02-01T21:03:19;8.3;82
74458;SHT31;62896;51.032;3.712;2023-02-01T21:06:39;8.3;82
74458;SHT31;62896;51.032;3.712;2023-02-01T21:09:59;8.3;82
74458;SHT31;62896;51.032;3.712;2023-02-01T21:13:19;8.3;81
74458;SHT31;62896;51.032;3.712;2023-02-01T21:16:39;8.3;81
74458;SHT31;62896;51.032;3.712;2023-02-01T21:19:59;8.3;81
74458;SHT31;62896;51.032;3.712;2023-02-01T21:23:19;8.4;81
74458;SHT31;62896;51.032;3.712;2023-02-01T21:26:39;8.4;81
74458;SHT31;62896;51.032;3.712;2023-02-01T21:29:59;8.4;81
74458;SHT31;62896;51.032;3.712;2023-02-01T21:33:19;8.4;81
74458;SHT31;62896;51.032;3.712;2023-02-01T21:36:39;8.4;81
74458;SHT31;62896;51.032;3.712;2023-02-01T21:39:59;8.4;81
74458;SHT31;62896;51.032;3.712;2023-02-01T21:43:19;8.4;81
74458;SHT31;62896;51.032;3.712;2023-02-01T21:46:39;8.4;81
74458;SHT31;62896;51.032;3.712;2023-02-01T21:49:59;8.4;81
74458;SHT31;62896;51.032;3.712;2023-02-01T21:53:19;8.4;81
74458;SHT31;62896;51.032;3.712;2023-02-01T21:56:39;8.4;81
74458;SHT31;62896;51.032;3.712;2023-02-01T21:59:59;8.4;81
74458;SHT31;62896;51.032;3.712;2023-02-01T22:03:19;8.4;81
74458;SHT31;62896;51.032;3.712;2023-02-01T22:06:39;8.4;81
74458;SHT31;62896;51.032;3.712;2023-02-01T22:09:59;8.4;81
74458;SHT31;62896;51.032;3.712;2023-02-01T22:13:19;8.3;82
74458;SHT31;62896;51.032;3.712;2023-02-01T22:16:39;8.3;82
74458;SHT31;62896;51.032;3.712;2023-02-01T22:19:59;8.3;82
74458;SHT31;62896;51.032;3.712;2023-02-01T22:23:19;8.3;82
74458;SHT31;62896;51.032;3.712;2023-02-01T22:26:39;8.3;82
74458;SHT31;62896;51.032;3.712;2023-02-01T22:29:59;8.3;82
74458;SHT31;62896;51.032;3.712;2023-02-01T22:33:19;8.3;82
74458;SHT31;62896;51.032;3.712;2023-02-01T22:36:39;8.3;82
74458;SHT31;62896;51.032;3.712;2023-02-01T22:39:59;8.3;82
74458;SHT31;62896;51.032;3.712;2023-02-01T22:43:19;8.3;82
74458;SHT31;62896;51.032;3.712;2023-02-01T22:46:39;8.3;82
74458;SHT31;62896;51.032;3.712;2023-02-01T22:49:59;8.3;82
74458;SHT31;62896;51.032;3.712;2023-02-01T22:53:19;8.3;82
74458;SHT31;62896;51.032;3.712;2023-02-01T22:56:39;8.3;82